Time;durP1;ratioP1;P1;durP2;ratioP2;P2;SDS_P1;SDS_P2;PMS_P1;PMS_P2;Temp;Humidity;BMP_temperature;BMP_pressure;BME280_temperature;BME280_humidity;BME280_pressure;Samples;Min_cycle;Max_cycle;Signal;HPM_P1;HPM_P2
2021/05/12 00:01:35;;;;;;;11.30;4.15;;;14.50;99.90;;;;;;1805282;77;21209;-68
2021/05/12 00:04:03;;;;;;;12.23;4.67;;;14.50;99.90;;;;;;1811161;78;21668;-68
2021/05/12 00:06:30;;;;;;;9.80;5.08;;;14.60;99.90;;;;;;1820412;77;22300;-69
2021/05/12 00:08:58;;;;;;;11.35;5.28;;;14.50;99.90;;;;;;1816640;77;21672;-68
2021/05/12 00:11:26;;;;;;;12.50;5.92;;;14.50;99.90;;;;;;1851583;76;21111;-67
2021/05/12 00:13:53;;;;;;;10.10;6.08;;;14.50;99.90;;;;;;1805310;77;21129;-67
2021/05/12 00:16:21;;;;;;;9.85;6.78;;;14.50;99.90;;;;;;1811106;78;21194;-69
2021/05/12 00:18:48;;;;;;;11.48;6.17;;;14.60;99.90;;;;;;1845301;76;21188;-71
2021/05/12 00:21:27;;;;;;;11.33;6.92;;;14.50;99.90;;;;;;1844382;76;21123;-70
2021/05/12 00:23:58;;;;;;;10.00;7.42;;;14.60;99.90;;;;;;1832246;77;21209;-70
2021/05/12 00:26:14;;;;;;;10.68;8.10;;;14.50;99.90;;;;;;1831001;77;21170;-67
2021/05/12 00:28:42;;;;;;;11.88;7.78;;;14.50;99.90;;;;;;1846963;76;21173;-68
2021/05/12 00:31:09;;;;;;;16.10;8.10;;;14.60;99.90;;;;;;1805259;77;21697;-68
2021/05/12 00:33:37;;;;;;;12.85;8.15;;;14.60;99.90;;;;;;1807290;78;21188;-68
2021/05/12 00:36:05;;;;;;;15.53;8.63;;;14.50;99.90;;;;;;1839517;76;21064;-69
2021/05/12 00:38:32;;;;;;;15.90;8.28;;;14.50;99.90;;;;;;1837259;76;21192;-68
2021/05/12 00:41:00;;;;;;;18.15;8.45;;;14.50;99.90;;;;;;1839333;76;21484;-67
2021/05/12 00:43:27;;;;;;;14.38;9.55;;;14.50;99.90;;;;;;1837796;76;21127;-68
2021/05/12 00:45:55;;;;;;;18.92;10.20;;;14.50;99.90;;;;;;1839678;76;21668;-67
2021/05/12 00:48:22;;;;;;;17.20;9.90;;;14.50;99.90;;;;;;1840165;77;21104;-68
2021/05/12 00:50:50;;;;;;;14.45;10.50;;;14.40;99.90;;;;;;1839044;76;21099;-67
2021/05/12 00:53:17;;;;;;;16.60;10.68;;;14.50;99.90;;;;;;1842144;77;21612;-67
2021/05/12 00:55:45;;;;;;;17.17;11.03;;;14.50;99.90;;;;;;1837958;76;21210;-67
2021/05/12 00:58:12;;;;;;;17.30;11.18;;;14.40;99.90;;;;;;1843399;76;21132;-68
2021/05/12 01:00:40;;;;;;;14.73;11.15;;;14.40;99.90;;;;;;1842858;76;21126;-68
2021/05/12 01:03:07;;;;;;;18.45;11.43;;;14.50;99.90;;;;;;1839095;77;21055;-69
2021/05/12 01:05:38;;;;;;;13.22;10.70;;;14.40;99.90;;;;;;1841981;76;21553;-69
2021/05/12 01:08:06;;;;;;;16.10;11.73;;;14.50;99.90;;;;;;1839949;77;21126;-69
2021/05/12 01:10:35;;;;;;;17.15;11.48;;;14.40;99.90;;;;;;1836101;76;21103;-68
2021/05/12 01:13:03;;;;;;;18.27;11.85;;;14.40;99.90;;;;;;1837525;76;21138;-68
2021/05/12 01:15:31;;;;;;;18.77;11.88;;;14.40;99.90;;;;;;1837426;77;21051;-67
2021/05/12 01:18:12;;;;;;;19.77;12.85;;;14.40;99.90;;;;;;1838494;76;21146;-68
2021/05/12 01:20:55;;;;;;;26.57;12.78;;;14.40;99.90;;;;;;1816887;76;21048;-68
2021/05/12 01:23:26;;;;;;;19.73;13.75;;;14.40;99.90;;;;;;1833898;77;21044;-68
2021/05/12 01:25:55;;;;;;;20.85;13.98;;;14.30;99.90;;;;;;1837597;76;21616;-68
2021/05/12 01:28:28;;;;;;;19.00;14.13;;;14.40;99.90;;;;;;1835924;77;21091;-68
2021/05/12 01:30:59;;;;;;;22.73;14.40;;;14.40;99.90;;;;;;1825809;77;21139;-68
2021/05/12 01:33:27;;;;;;;23.85;14.25;;;14.40;99.90;;;;;;1807560;77;21486;-69
2021/05/12 01:35:55;;;;;;;25.82;14.85;;;14.30;99.90;;;;;;1835779;76;21125;-69
2021/05/12 01:38:24;;;;;;;26.75;16.42;;;14.40;99.90;;;;;;1844563;76;21094;-67
2021/05/12 01:40:51;;;;;;;21.00;16.07;;;14.40;99.90;;;;;;1844261;73;21122;-67
2021/05/12 01:43:19;;;;;;;21.95;15.98;;;14.40;99.90;;;;;;1842208;76;21131;-69
2021/05/12 01:45:48;;;;;;;23.65;15.98;;;14.30;99.90;;;;;;1835890;76;21525;-69
2021/05/12 01:48:15;;;;;;;25.55;16.20;;;14.30;99.90;;;;;;1807065;77;21111;-68
2021/05/12 01:50:43;;;;;;;22.73;15.30;;;14.20;99.90;;;;;;1809560;77;21176;-69
2021/05/12 01:53:11;;;;;;;24.98;15.48;;;14.20;99.90;;;;;;1829861;77;21117;-68
2021/05/12 01:55:39;;;;;;;20.97;14.80;;;14.20;99.90;;;;;;1807154;78;21104;-68
2021/05/12 01:58:07;;;;;;;22.07;16.42;;;14.10;99.90;;;;;;1837091;76;21138;-68
2021/05/12 02:00:37;;;;;;;28.00;14.93;;;14.20;99.90;;;;;;1818035;77;21120;-68
2021/05/12 02:03:07;;;;;;;29.90;15.30;;;14.20;99.90;;;;;;1862271;76;21097;-68
2021/05/12 02:05:35;;;;;;;23.50;14.85;;;14.20;99.90;;;;;;1864441;76;21165;-68
2021/05/12 02:08:04;;;;;;;27.42;16.17;;;14.10;99.90;;;;;;1858545;76;22409;-68
2021/05/12 02:10:37;;;;;;;20.35;14.90;;;14.10;99.90;;;;;;1862688;76;21487;-68
2021/05/12 02:13:05;;;;;;;25.80;14.78;;;14.10;99.90;;;;;;1857992;76;21176;-68
2021/05/12 02:15:32;;;;;;;21.52;14.43;;;14.10;99.90;;;;;;1860750;75;21112;-68
2021/05/12 02:18:00;;;;;;;24.82;14.33;;;14.10;99.90;;;;;;1856762;76;21081;-68
2021/05/12 02:20:30;;;;;;;19.50;13.93;;;14.10;99.90;;;;;;1854826;75;21102;-68
2021/05/12 02:22:59;;;;;;;19.27;13.80;;;14.10;99.90;;;;;;1886606;70;21249;-70
2021/05/12 02:25:28;;;;;;;28.23;14.15;;;14.10;99.90;;;;;;1895111;74;21069;-70
2021/05/12 02:27:56;;;;;;;21.65;14.40;;;14.10;99.90;;;;;;1893413;74;21190;-71
2021/05/12 02:30:23;;;;;;;20.62;14.00;;;14.00;99.90;;;;;;1900382;74;21095;-72
2021/05/12 02:32:52;;;;;;;22.25;13.60;;;14.00;99.90;;;;;;1888297;74;21145;-71
2021/05/12 02:35:20;;;;;;;21.62;13.00;;;14.00;99.90;;;;;;1890118;74;21089;-72
2021/05/12 02:37:48;;;;;;;20.00;12.93;;;14.00;99.90;;;;;;1892296;74;21097;-71
2021/05/12 02:40:17;;;;;;;18.25;12.90;;;14.00;99.90;;;;;;1890841;74;21139;-72
2021/05/12 02:42:45;;;;;;;22.10;13.25;;;14.00;99.90;;;;;;1849850;75;21127;-70
2021/05/12 02:45:14;;;;;;;17.37;12.28;;;14.00;99.90;;;;;;1848602;75;21138;-71
2021/05/12 02:47:56;;;;;;;22.93;11.83;;;14.00;99.90;;;;;;1853056;76;21576;-71
2021/05/12 02:50:12;;;;;;;23.38;11.08;;;14.00;99.90;;;;;;1848277;76;21130;-70
2021/05/12 02:52:39;;;;;;;22.58;11.15;;;13.90;99.90;;;;;;1853675;76;21146;-70
2021/05/12 02:55:08;;;;;;;15.35;9.13;;;13.90;99.90;;;;;;1848743;76;21160;-70
2021/05/12 02:57:36;;;;;;;13.00;8.65;;;13.90;99.90;;;;;;1851673;76;21118;-71
2021/05/12 03:00:04;;;;;;;15.38;8.30;;;13.90;99.90;;;;;;1855758;76;21122;-71
2021/05/12 03:02:32;;;;;;;15.28;8.33;;;13.80;99.90;;;;;;1852718;76;21130;-70
2021/05/12 03:04:59;;;;;;;13.65;7.67;;;13.80;99.90;;;;;;1851926;76;21102;-70
2021/05/12 03:07:27;;;;;;;15.38;8.05;;;13.80;99.90;;;;;;1851780;76;21184;-69
2021/05/12 03:09:54;;;;;;;13.18;7.92;;;13.80;99.90;;;;;;1854233;76;21180;-70
2021/05/12 03:12:22;;;;;;;15.65;8.58;;;13.70;99.90;;;;;;1851343;76;21135;-71
2021/05/12 03:14:49;;;;;;;14.40;8.43;;;13.80;99.90;;;;;;1889384;74;21261;-70
2021/05/12 03:17:17;;;;;;;17.87;8.78;;;13.80;99.90;;;;;;1888031;74;21042;-70
2021/05/12 03:19:44;;;;;;;15.83;9.43;;;13.80;99.90;;;;;;1890461;74;21121;-71
2021/05/12 03:22:12;;;;;;;15.23;9.03;;;13.80;99.90;;;;;;1888928;74;21594;-71
2021/05/12 03:24:39;;;;;;;17.85;9.05;;;13.80;99.90;;;;;;1889624;74;21104;-70
2021/05/12 03:27:16;;;;;;;13.22;7.95;;;13.80;99.90;;;;;;1893773;74;21080;-71
2021/05/12 03:29:43;;;;;;;15.23;8.45;;;13.80;99.90;;;;;;1891521;74;21010;-71
2021/05/12 03:32:11;;;;;;;16.75;8.95;;;13.70;99.90;;;;;;1889927;74;21153;-71
2021/05/12 03:34:38;;;;;;;13.32;8.68;;;13.80;99.90;;;;;;1890115;74;21188;-70
2021/05/12 03:37:06;;;;;;;15.53;10.18;;;13.80;99.90;;;;;;1891010;74;22043;-70
2021/05/12 03:39:33;;;;;;;15.08;9.63;;;13.80;99.90;;;;;;1892428;74;21174;-71
2021/05/12 03:42:01;;;;;;;16.35;9.65;;;13.80;99.90;;;;;;1886627;74;21184;-70
2021/05/12 03:44:28;;;;;;;14.38;9.13;;;13.90;99.90;;;;;;1887318;74;22122;-70
2021/05/12 03:46:56;;;;;;;18.40;9.55;;;13.80;99.90;;;;;;1890438;74;21043;-71
2021/05/12 03:49:23;;;;;;;17.52;9.65;;;13.90;99.90;;;;;;1890537;74;21095;-70
2021/05/12 03:51:51;;;;;;;20.00;10.80;;;13.90;99.90;;;;;;1885730;74;21740;-69
2021/05/12 03:54:21;;;;;;;19.98;11.33;;;13.90;99.90;;;;;;1888368;74;21645;-70
2021/05/12 03:56:48;;;;;;;16.48;12.05;;;13.90;99.90;;;;;;1886127;74;21200;-70
2021/05/12 03:59:15;;;;;;;18.12;12.85;;;13.90;99.90;;;;;;1888180;74;21198;-70
2021/05/12 04:01:43;;;;;;;20.97;13.60;;;13.90;99.90;;;;;;1895872;74;21134;-70
2021/05/12 04:04:14;;;;;;;18.05;12.58;;;14.00;99.90;;;;;;1887929;74;21081;-70
2021/05/12 04:06:41;;;;;;;19.62;14.50;;;14.00;99.90;;;;;;1890625;74;21117;-70
2021/05/12 04:09:08;;;;;;;21.90;14.43;;;14.00;99.90;;;;;;1894163;74;21137;-71
2021/05/12 04:11:36;;;;;;;20.23;14.45;;;14.00;99.90;;;;;;1886465;74;21234;-70
2021/05/12 04:14:04;;;;;;;19.15;14.55;;;14.00;99.90;;;;;;1886356;74;21144;-69
2021/05/12 04:16:34;;;;;;;23.18;14.75;;;13.90;99.90;;;;;;1892398;74;21081;-70
2021/05/12 04:19:03;;;;;;;18.87;13.85;;;13.90;99.90;;;;;;1884617;74;21647;-69
2021/05/12 04:21:32;;;;;;;19.32;14.80;;;13.90;99.90;;;;;;1888483;74;21202;-69
2021/05/12 04:23:59;;;;;;;19.05;14.07;;;13.90;99.90;;;;;;1889089;74;21026;-70
2021/05/12 04:26:27;;;;;;;27.02;13.70;;;14.00;99.90;;;;;;1892307;74;21100;-70
2021/05/12 04:28:54;;;;;;;24.12;13.93;;;14.00;99.90;;;;;;1888331;74;21148;-69
2021/05/12 04:31:22;;;;;;;21.73;14.18;;;14.00;99.90;;;;;;1888985;74;21028;-69
2021/05/12 04:33:49;;;;;;;22.52;14.70;;;14.00;99.90;;;;;;1890177;74;21116;-69
2021/05/12 04:36:17;;;;;;;20.15;13.75;;;14.10;99.90;;;;;;1889356;74;21034;-69
2021/05/12 04:38:45;;;;;;;20.10;13.55;;;14.20;99.90;;;;;;1886220;74;21124;-69
2021/05/12 04:41:12;;;;;;;21.05;14.45;;;14.30;99.90;;;;;;1885404;74;21104;-69
2021/05/12 04:43:39;;;;;;;18.17;13.75;;;14.20;99.90;;;;;;1890100;74;21092;-70
2021/05/12 04:46:07;;;;;;;23.20;14.53;;;14.10;99.90;;;;;;1889976;74;21171;-69
2021/05/12 04:48:35;;;;;;;22.65;14.75;;;14.10;99.90;;;;;;1895241;74;22096;-69
2021/05/12 04:51:02;;;;;;;21.87;16.07;;;14.20;99.90;;;;;;1890056;74;21519;-68
2021/05/12 04:53:30;;;;;;;22.07;14.23;;;14.30;99.90;;;;;;1893203;74;21149;-70
2021/05/12 04:55:57;;;;;;;20.92;14.83;;;14.30;99.90;;;;;;1890300;74;21105;-69
2021/05/12 04:58:25;;;;;;;20.60;15.23;;;14.20;99.90;;;;;;1891700;74;21665;-69
2021/05/12 05:00:52;;;;;;;21.60;15.00;;;14.20;99.90;;;;;;1896438;74;21110;-70
2021/05/12 05:03:20;;;;;;;22.42;14.78;;;14.20;99.90;;;;;;1887074;74;21105;-70
2021/05/12 05:05:47;;;;;;;23.42;14.20;;;14.30;99.90;;;;;;1887724;74;21119;-71
2021/05/12 05:08:15;;;;;;;21.23;13.75;;;14.30;99.90;;;;;;1894906;74;21618;-69
2021/05/12 05:10:42;;;;;;;21.90;14.60;;;14.40;99.90;;;;;;1890498;74;21555;-70
2021/05/12 05:13:10;;;;;;;17.95;12.93;;;14.40;99.90;;;;;;1892353;74;21269;-69
2021/05/12 05:15:37;;;;;;;19.67;13.85;;;14.50;99.90;;;;;;1897824;74;21205;-70
2021/05/12 05:18:05;;;;;;;18.30;13.22;;;14.50;99.90;;;;;;1896042;74;21166;-71
2021/05/12 05:20:33;;;;;;;18.75;13.25;;;14.50;99.90;;;;;;1896383;74;21555;-69
2021/05/12 05:23:05;;;;;;;20.05;13.85;;;14.50;99.90;;;;;;1891888;74;21226;-69
2021/05/12 05:25:32;;;;;;;18.20;12.18;;;14.50;99.90;;;;;;1890413;74;21563;-68
2021/05/12 05:27:59;;;;;;;21.40;12.82;;;14.60;99.90;;;;;;1891904;74;21172;-67
2021/05/12 05:30:27;;;;;;;18.32;11.85;;;14.60;99.90;;;;;;1895779;74;21166;-69
2021/05/12 05:33:01;;;;;;;19.05;11.88;;;14.60;99.90;;;;;;1884321;74;21452;-69
2021/05/12 05:35:29;;;;;;;18.40;11.78;;;14.70;99.90;;;;;;1888033;74;21647;-70
2021/05/12 05:37:56;;;;;;;20.08;12.05;;;14.60;99.90;;;;;;1892382;74;21622;-70
2021/05/12 05:40:24;;;;;;;18.48;10.85;;;14.60;99.90;;;;;;1893252;74;21113;-72
2021/05/12 05:43:01;;;;;;;14.65;10.48;;;14.60;99.90;;;;;;1897032;74;21137;-69
2021/05/12 05:45:29;;;;;;;18.20;11.63;;;14.70;99.90;;;;;;1893531;74;21202;-72
2021/05/12 05:47:57;;;;;;;17.62;10.68;;;14.70;99.90;;;;;;1894802;74;21566;-73
2021/05/12 05:50:24;;;;;;;19.42;11.25;;;14.60;99.90;;;;;;1892902;74;21093;-75
2021/05/12 05:52:54;;;;;;;13.38;9.75;;;14.60;99.90;;;;;;1894079;74;21207;-77
2021/05/12 05:55:22;;;;;;;16.20;10.75;;;14.60;99.90;;;;;;1888198;74;21158;-76
2021/05/12 05:57:51;;;;;;;14.70;10.80;;;14.50;99.90;;;;;;1890279;74;21093;-75
2021/05/12 06:00:19;;;;;;;18.35;11.50;;;14.60;99.90;;;;;;1892915;74;21108;-76
2021/05/12 06:02:47;;;;;;;25.90;12.55;;;14.60;99.90;;;;;;1893466;74;21714;-76
2021/05/12 06:05:16;;;;;;;18.17;11.25;;;14.60;99.90;;;;;;1887527;74;21141;-76
2021/05/12 06:07:43;;;;;;;18.82;12.20;;;14.60;99.90;;;;;;1889482;74;21215;-76
2021/05/12 06:10:11;;;;;;;18.07;11.53;;;14.60;99.90;;;;;;1888319;74;21373;-75
2021/05/12 06:12:39;;;;;;;19.48;11.10;;;14.60;99.90;;;;;;1887812;74;21249;-75
2021/05/12 06:15:07;;;;;;;18.07;11.60;;;14.60;99.90;;;;;;1888389;74;21077;-76
2021/05/12 06:17:34;;;;;;;20.10;11.43;;;14.50;99.90;;;;;;1896240;74;21602;-74
2021/05/12 06:20:02;;;;;;;21.75;12.55;;;14.50;99.90;;;;;;1894269;74;21082;-76
2021/05/12 06:22:29;;;;;;;19.27;11.97;;;14.50;99.90;;;;;;1893697;74;21224;-75
2021/05/12 06:24:57;;;;;;;24.32;13.43;;;14.50;99.90;;;;;;1891514;74;21167;-75
2021/05/12 06:27:24;;;;;;;22.25;13.20;;;14.60;99.90;;;;;;1890107;74;21591;-75
2021/05/12 06:29:52;;;;;;;18.42;12.25;;;14.70;99.90;;;;;;1885889;74;21140;-75
2021/05/12 06:32:19;;;;;;;24.20;12.98;;;14.70;99.90;;;;;;1890896;74;21172;-76
2021/05/12 06:34:47;;;;;;;22.77;13.25;;;14.70;99.90;;;;;;1892175;74;21539;-76
2021/05/12 06:37:14;;;;;;;22.05;13.53;;;14.70;99.90;;;;;;1888249;74;21148;-76
2021/05/12 06:39:42;;;;;;;22.95;13.53;;;14.70;99.90;;;;;;1891109;74;21170;-76
2021/05/12 06:42:09;;;;;;;21.52;13.50;;;14.70;99.90;;;;;;1890013;74;21164;-74
2021/05/12 06:44:37;;;;;;;21.48;14.33;;;14.70;99.90;;;;;;1888595;74;21608;-74
2021/05/12 06:47:04;;;;;;;23.95;13.62;;;14.60;99.90;;;;;;1889629;74;21240;-73
2021/05/12 06:49:32;;;;;;;25.92;13.80;;;14.60;99.90;;;;;;1893210;74;21597;-74
2021/05/12 06:51:59;;;;;;;24.07;13.85;;;14.60;99.90;;;;;;1890055;74;21621;-74
2021/05/12 06:54:27;;;;;;;20.60;13.30;;;14.70;99.90;;;;;;1890693;74;21105;-75
2021/05/12 06:56:54;;;;;;;21.27;13.20;;;14.70;99.90;;;;;;1890241;74;21089;-73
2021/05/12 06:59:22;;;;;;;20.65;13.80;;;14.80;99.90;;;;;;1890778;74;21582;-74
2021/05/12 07:01:49;;;;;;;19.35;12.47;;;14.80;99.90;;;;;;1890895;74;21165;-75
2021/05/12 07:04:17;;;;;;;18.10;12.85;;;14.80;99.90;;;;;;1887880;74;21170;-74
2021/05/12 07:06:44;;;;;;;19.77;13.32;;;14.80;99.90;;;;;;1895864;74;21111;-74
2021/05/12 07:09:12;;;;;;;19.50;12.90;;;14.80;99.90;;;;;;1891601;74;21698;-73
2021/05/12 07:11:40;;;;;;;22.82;12.88;;;14.80;99.90;;;;;;1893672;74;21862;-74
2021/05/12 07:14:08;;;;;;;20.55;13.90;;;14.80;99.90;;;;;;1891015;74;21614;-73
2021/05/12 07:16:36;;;;;;;23.27;14.55;;;14.80;99.90;;;;;;1889433;74;21257;-76
2021/05/12 07:19:03;;;;;;;18.12;13.85;;;14.90;99.90;;;;;;1890106;74;21101;-71
2021/05/12 07:21:31;;;;;;;21.12;14.25;;;14.90;99.90;;;;;;1891573;74;21250;-73
2021/05/12 07:23:58;;;;;;;23.32;14.45;;;14.90;99.90;;;;;;1891093;74;21082;-77
2021/05/12 07:26:26;;;;;;;22.60;13.62;;;14.90;99.90;;;;;;1889300;74;21465;-74
2021/05/12 07:28:54;;;;;;;18.57;12.68;;;14.90;99.90;;;;;;1888811;74;21039;-75
2021/05/12 07:31:23;;;;;;;21.25;13.88;;;15.00;99.90;;;;;;1890044;74;21202;-76
2021/05/12 07:33:50;;;;;;;17.55;13.22;;;15.00;99.90;;;;;;1887424;74;21179;-80
2021/05/12 07:36:18;;;;;;;17.75;13.08;;;15.00;99.90;;;;;;1886259;74;21025;-73
2021/05/12 07:38:45;;;;;;;15.78;11.97;;;14.90;99.90;;;;;;1884405;74;21655;-73
2021/05/12 07:41:14;;;;;;;15.68;10.90;;;15.00;99.90;;;;;;1893421;74;21634;-73
2021/05/12 07:43:43;;;;;;;18.02;11.10;;;15.10;99.90;;;;;;1891626;74;21225;-73
2021/05/12 07:46:10;;;;;;;15.23;10.63;;;15.20;99.90;;;;;;1891338;74;21464;-73
2021/05/12 07:48:38;;;;;;;19.45;10.35;;;15.20;99.90;;;;;;1891750;74;21163;-73
2021/05/12 07:51:05;;;;;;;12.07;8.98;;;15.20;99.90;;;;;;1891088;74;21069;-72
2021/05/12 07:53:33;;;;;;;12.55;8.05;;;15.30;99.90;;;;;;1892553;74;21621;-74
2021/05/12 07:56:00;;;;;;;11.25;6.50;;;15.40;99.90;;;;;;1890786;74;21116;-73
2021/05/12 07:58:28;;;;;;;10.38;7.20;;;15.40;99.90;;;;;;1887584;74;21062;-72
2021/05/12 08:01:02;;;;;;;10.38;6.47;;;15.50;99.90;;;;;;1896611;74;21666;-72
2021/05/12 08:03:25;;;;;;;11.40;7.30;;;15.50;99.90;;;;;;1890571;74;21132;-73
2021/05/12 08:05:52;;;;;;;12.65;7.17;;;15.60;99.90;;;;;;1891521;74;22372;-72
2021/05/12 08:08:20;;;;;;;7.20;5.58;;;15.60;99.90;;;;;;1891138;74;21175;-72
2021/05/12 08:10:47;;;;;;;18.45;14.13;;;15.60;99.90;;;;;;1892888;74;21120;-73
2021/05/12 08:13:15;;;;;;;13.48;8.43;;;15.70;99.90;;;;;;1889792;74;21123;-72
2021/05/12 08:15:42;;;;;;;8.05;5.37;;;15.70;99.90;;;;;;1891495;74;21194;-73
2021/05/12 08:18:10;;;;;;;9.28;5.92;;;15.60;99.90;;;;;;1891060;74;21553;-73
2021/05/12 08:20:37;;;;;;;8.78;5.80;;;15.60;99.90;;;;;;1890821;74;21062;-73
2021/05/12 08:23:05;;;;;;;8.83;5.95;;;15.60;99.90;;;;;;1891156;74;21234;-72
2021/05/12 08:25:33;;;;;;;8.13;5.10;;;15.60;99.90;;;;;;1890470;74;21189;-73
2021/05/12 08:28:00;;;;;;;10.00;5.75;;;15.60;99.90;;;;;;1894735;74;21144;-73
2021/05/12 08:30:34;;;;;;;9.68;6.00;;;15.70;99.90;;;;;;1886490;74;21689;-77
2021/05/12 08:32:58;;;;;;;13.80;7.20;;;15.60;99.90;;;;;;1888802;74;21423;-71
2021/05/12 08:35:26;;;;;;;11.48;7.37;;;15.60;99.90;;;;;;1892966;74;21852;-73
2021/05/12 08:37:54;;;;;;;13.28;7.10;;;15.60;99.90;;;;;;1891752;74;21104;-74
2021/05/12 08:40:22;;;;;;;11.08;6.65;;;15.60;99.90;;;;;;1887171;74;21630;-74
2021/05/12 08:42:51;;;;;;;13.08;6.92;;;15.70;99.90;;;;;;1888783;74;21120;-73
2021/05/12 08:45:19;;;;;;;14.60;7.17;;;15.70;99.90;;;;;;1886445;74;21531;-73
2021/05/12 08:47:54;;;;;;;11.57;7.33;;;15.70;99.90;;;;;;1885291;74;21038;-73
2021/05/12 08:50:17;;;;;;;14.15;7.33;;;15.70;99.90;;;;;;1889141;74;21035;-74
2021/05/12 08:52:44;;;;;;;12.28;7.70;;;15.70;99.90;;;;;;1884648;74;21065;-74
2021/05/12 08:55:12;;;;;;;13.90;7.87;;;15.80;99.90;;;;;;1891459;74;21018;-74
2021/05/12 08:57:40;;;;;;;12.50;7.87;;;15.80;99.90;;;;;;1889911;74;21030;-74
2021/05/12 09:00:08;;;;;;;11.22;7.35;;;15.80;99.90;;;;;;1886974;74;21037;-74
2021/05/12 09:02:36;;;;;;;12.78;6.97;;;15.90;99.90;;;;;;1893922;74;21183;-74
2021/05/12 09:05:06;;;;;;;10.85;7.15;;;15.90;99.90;;;;;;1886265;74;21095;-74
2021/05/12 09:07:35;;;;;;;15.10;7.47;;;16.00;99.90;;;;;;1885882;74;21085;-74
2021/05/12 09:10:04;;;;;;;12.15;6.70;;;16.00;99.90;;;;;;1887685;74;21115;-74
2021/05/12 09:13:00;;;;;;;12.47;6.92;;;15.90;99.90;;;;;;1889023;74;21168;-73
2021/05/12 09:15:27;;;;;;;12.55;6.20;;;15.90;99.90;;;;;;1889534;74;21516;-74
2021/05/12 09:17:59;;;;;;;11.33;7.17;;;16.00;99.90;;;;;;1891878;74;21128;-73
2021/05/12 09:20:39;;;;;;;12.07;6.72;;;16.00;99.90;;;;;;1888718;74;21046;-73
2021/05/12 09:23:16;;;;;;;12.25;6.58;;;15.90;99.90;;;;;;1891177;74;21120;-74
2021/05/12 09:25:53;;;;;;;9.35;5.78;;;16.00;99.90;;;;;;1899014;74;21033;-73
2021/05/12 09:28:23;;;;;;;9.73;5.70;;;16.00;99.90;;;;;;1893442;74;21209;-73
2021/05/12 09:30:53;;;;;;;9.15;5.42;;;15.90;99.90;;;;;;1891667;74;21101;-71
2021/05/12 09:33:32;;;;;;;8.78;5.72;;;16.00;99.90;;;;;;1895243;74;21532;-71
2021/05/12 09:36:01;;;;;;;9.23;5.05;;;16.10;99.90;;;;;;1887791;74;21119;-72
2021/05/12 09:38:30;;;;;;;7.53;5.53;;;16.10;99.90;;;;;;1892524;74;21093;-71
2021/05/12 09:41:03;;;;;;;7.87;5.12;;;16.20;99.90;;;;;;1888858;74;21085;-71
2021/05/12 09:43:51;;;;;;;9.55;4.78;;;16.30;99.90;;;;;;1888799;74;21109;-73
2021/05/12 09:46:24;;;;;;;14.45;5.17;;;16.30;99.90;;;;;;1852628;77;21084;-72
2021/05/12 09:49:03;;;;;;;8.28;4.60;;;16.40;99.90;;;;;;1850564;77;21101;-72
2021/05/12 09:51:34;;;;;;;9.58;4.47;;;16.40;99.90;;;;;;1883740;74;21116;-72
2021/05/12 09:54:21;;;;;;;8.70;4.45;;;16.40;99.90;;;;;;1879070;76;21090;-72
2021/05/12 09:56:57;;;;;;;8.50;4.10;;;16.50;99.90;;;;;;1881317;75;21234;-72
2021/05/12 09:59:27;;;;;;;7.22;3.87;;;16.60;99.90;;;;;;1882097;76;21642;-72
2021/05/12 10:01:57;;;;;;;9.33;4.65;;;16.50;99.90;;;;;;1878278;76;21093;-72
2021/05/12 10:04:37;;;;;;;8.60;4.60;;;16.50;99.90;;;;;;1882105;74;22274;-72
2021/05/12 10:07:16;;;;;;;7.45;4.15;;;16.50;99.90;;;;;;1882614;76;21057;-72
2021/05/12 10:09:45;;;;;;;8.60;4.15;;;16.60;99.90;;;;;;1877988;74;21798;-72
2021/05/12 10:12:16;;;;;;;7.17;4.25;;;16.60;99.90;;;;;;1880957;74;21583;-72
2021/05/12 10:14:46;;;;;;;9.00;4.33;;;16.40;99.90;;;;;;1880466;76;21128;-72
2021/05/12 10:17:16;;;;;;;8.40;3.77;;;16.50;99.90;;;;;;1882808;74;21022;-72
2021/05/12 10:19:44;;;;;;;5.95;3.95;;;16.80;99.90;;;;;;1884353;74;21084;-72
2021/05/12 10:22:13;;;;;;;5.70;3.95;;;17.10;99.90;;;;;;1881316;75;21611;-72
2021/05/12 10:24:42;;;;;;;7.05;3.90;;;17.40;99.90;;;;;;1882476;74;21097;-72
2021/05/12 10:27:24;;;;;;;7.80;3.98;;;17.50;99.90;;;;;;1879488;76;21163;-72
2021/05/12 10:29:54;;;;;;;11.10;3.92;;;17.60;99.90;;;;;;1881391;74;21104;-72
2021/05/12 10:32:30;;;;;;;10.10;3.72;;;17.60;99.90;;;;;;1882154;76;21584;-72
2021/05/12 10:35:07;;;;;;;8.75;3.00;;;17.70;99.90;;;;;;1884333;74;21112;-72
2021/05/12 10:37:37;;;;;;;3.52;2.30;;;17.60;99.90;;;;;;1885864;74;21077;-72
2021/05/12 10:40:07;;;;;;;5.97;2.47;;;17.80;99.90;;;;;;1883783;74;21097;-73
2021/05/12 10:43:17;;;;;;;5.92;2.37;;;17.90;99.90;;;;;;1882278;74;21121;-73
2021/05/12 10:45:50;;;;;;;86.57;27.37;;;18.20;99.90;;;;;;1884172;74;21593;-71
2021/05/12 10:48:47;;;;;;;13.48;5.15;;;18.20;99.90;;;;;;1886631;74;21222;-71
2021/05/12 10:51:26;;;;;;;4.95;2.40;;;18.20;99.90;;;;;;1888795;74;21124;-70
2021/05/12 10:53:55;;;;;;;9.00;2.58;;;18.20;99.90;;;;;;1882420;74;21206;-70
2021/05/12 10:56:25;;;;;;;6.67;2.15;;;18.10;99.90;;;;;;1889085;74;21480;-70
2021/05/12 10:59:04;;;;;;;3.52;2.05;;;18.20;99.90;;;;;;1881762;74;21034;-70
2021/05/12 11:01:48;;;;;;;6.95;2.50;;;18.40;99.90;;;;;;1885733;74;21591;-70
2021/05/12 11:04:19;;;;;;;4.78;2.05;;;18.60;99.90;;;;;;1887088;74;21029;-70
2021/05/12 11:06:54;;;;;;;3.95;2.33;;;18.60;99.90;;;;;;1876680;74;21057;-70
2021/05/12 11:09:24;;;;;;;4.70;2.33;;;18.50;99.90;;;;;;1884609;74;21093;-71
2021/05/12 11:12:00;;;;;;;4.78;2.37;;;18.40;99.90;;;;;;1881288;74;21164;-70
2021/05/12 11:14:29;;;;;;;5.50;2.40;;;18.40;99.90;;;;;;1881662;76;21136;-69
2021/05/12 11:17:12;;;;;;;7.72;2.50;;;18.30;99.90;;;;;;1882064;74;21093;-69
2021/05/12 11:19:44;;;;;;;6.87;2.83;;;18.10;99.90;;;;;;1884080;74;21034;-68
2021/05/12 11:22:37;;;;;;;5.70;2.60;;;18.00;99.90;;;;;;1881401;74;21175;-70
2021/05/12 11:25:54;;;;;;;3.22;2.40;;;18.10;99.90;;;;;;1884171;74;21129;-70
2021/05/12 11:33:31;;;;;;;4.83;2.33;;;19.40;99.90;;;;;;1882136;74;21270;-69
2021/05/12 11:36:06;;;;;;;4.78;2.08;;;20.10;99.90;;;;;;1886368;74;21164;-70
2021/05/12 11:38:29;;;;;;;5.10;2.37;;;21.10;99.90;;;;;;1879886;76;21567;-69
2021/05/12 11:41:09;;;;;;;3.47;1.77;;;22.60;99.90;;;;;;1884238;76;21081;-74
2021/05/12 11:43:41;;;;;;;3.47;1.62;;;23.00;99.90;;;;;;1887114;74;21668;-71
2021/05/12 11:46:14;;;;;;;4.72;1.60;;;23.80;99.90;;;;;;1889149;74;21089;-70
2021/05/12 11:49:01;;;;;;;3.58;1.50;;;24.50;98.40;;;;;;1884538;74;21010;-71
2021/05/12 11:51:32;;;;;;;2.42;1.42;;;24.80;98.00;;;;;;1883941;74;21144;-69
2021/05/12 11:54:01;;;;;;;56.77;17.60;;;24.20;97.00;;;;;;1883891;74;21100;-70
2021/05/12 11:56:29;;;;;;;12.88;3.20;;;23.20;97.90;;;;;;1878068;74;21058;-69
2021/05/12 11:59:00;;;;;;;94.92;25.77;;;22.60;98.80;;;;;;1879925;74;21124;-70
2021/05/12 12:01:30;;;;;;;13.43;4.10;;;22.00;99.20;;;;;;1872726;74;21137;-71
2021/05/12 12:04:27;;;;;;;3.45;1.98;;;21.20;99.90;;;;;;1879999;74;21226;-70
2021/05/12 12:07:03;;;;;;;5.05;2.10;;;20.60;99.90;;;;;;1882459;74;21116;-69
2021/05/12 12:09:31;;;;;;;4.90;1.98;;;20.00;99.90;;;;;;1880746;74;21101;-68
2021/05/12 12:11:59;;;;;;;40.12;12.00;;;19.60;99.90;;;;;;1876454;74;21696;-68
2021/05/12 12:14:32;;;;;;;15.95;4.70;;;19.20;99.90;;;;;;1881682;74;21187;-69
2021/05/12 12:17:01;;;;;;;172.80;49.10;;;19.00;99.90;;;;;;1880544;74;21108;-68
2021/05/12 12:19:28;;;;;;;14.43;4.53;;;18.80;99.90;;;;;;1885566;74;21092;-69
2021/05/12 12:21:56;;;;;;;8.15;2.65;;;19.00;99.90;;;;;;1885087;74;21160;-69
2021/05/12 12:24:26;;;;;;;14.55;5.53;;;20.20;99.90;;;;;;1885983;75;21476;-69
2021/05/12 12:26:59;;;;;;;5.33;2.17;;;21.50;99.90;;;;;;1886362;74;21183;-68
2021/05/12 12:29:28;;;;;;;17.50;6.03;;;21.90;99.90;;;;;;1884380;74;22408;-69
2021/05/12 12:31:59;;;;;;;4.03;1.60;;;21.40;99.90;;;;;;1884903;74;21234;-68
2021/05/12 12:34:36;;;;;;;5.03;2.10;;;21.00;99.90;;;;;;1882719;74;21520;-69
2021/05/12 12:37:11;;;;;;;11.10;3.00;;;20.50;99.90;;;;;;1884067;76;21066;-69
2021/05/12 12:39:46;;;;;;;7.33;1.98;;;20.40;99.90;;;;;;1883294;74;21164;-68
2021/05/12 12:42:17;;;;;;;3.80;1.70;;;20.60;99.90;;;;;;1888948;74;21255;-68
2021/05/12 12:44:45;;;;;;;7.20;2.92;;;20.80;99.90;;;;;;1874756;74;21273;-68
2021/05/12 12:47:16;;;;;;;8.13;2.02;;;21.00;99.90;;;;;;1879587;74;21116;-68
2021/05/12 12:49:47;;;;;;;32.65;10.80;;;21.00;99.90;;;;;;1884270;74;21757;-69
2021/05/12 12:52:21;;;;;;;9.40;2.75;;;21.30;99.90;;;;;;1887261;74;21188;-68